sensor_id;sensor_type;location;lat;lon;timestamp;noise_LAeq;noise_LA_min;noise_LA_max;noise_LA01;noise_LA95
67324;Laerm;57667;51.438;5.968;2023-02-15T00:00:10;36.92;33.37;41.12;;
67324;Laerm;57667;51.438;5.968;2023-02-15T00:00:21;34.66;32.64;36.80;;
67324;Laerm;57667;51.438;5.968;2023-02-15T00:00:31;33.29;31.16;35.07;;
67324;Laerm;57667;51.438;5.968;2023-02-15T00:00:42;33.96;31.99;36.45;;
67324;Laerm;57667;51.438;5.968;2023-02-15T00:00:52;33.81;31.95;36.93;;
67324;Laerm;57667;51.438;5.968;2023-02-15T00:01:07;34.25;32.21;37.21;;
67324;Laerm;57667;51.438;5.968;2023-02-15T00:01:18;34.60;31.82;42.81;;
67324;Laerm;57667;51.438;5.968;2023-02-15T00:01:28;34.04;31.97;38.80;;
67324;Laerm;57667;51.438;5.968;2023-02-15T00:01:39;34.43;32.57;38.43;;
67324;Laerm;57667;51.438;5.968;2023-02-15T00:01:50;34.10;31.57;37.33;;
67324;Laerm;57667;51.438;5.968;2023-02-15T00:02:01;34.09;31.44;37.85;;
67324;Laerm;57667;51.438;5.968;2023-02-15T00:02:11;34.34;31.89;41.56;;
67324;Laerm;57667;51.438;5.968;2023-02-15T00:02:22;39.52;31.74;48.14;;
67324;Laerm;57667;51.438;5.968;2023-02-15T00:02:34;40.23;31.97;50.47;;
67324;Laerm;57667;51.438;5.968;2023-02-15T00:02:44;41.15;34.32;49.30;;
67324;Laerm;57667;51.438;5.968;2023-02-15T00:02:54;39.37;33.51;48.28;;
67324;Laerm;57667;51.438;5.968;2023-02-15T00:03:05;37.13;32.96;46.22;;
67324;Laerm;57667;51.438;5.968;2023-02-15T00:03:15;41.14;32.79;50.78;;
67324;Laerm;57667;51.438;5.968;2023-02-15T00:03:26;38.32;32.33;48.97;;
67324;Laerm;57667;51.438;5.968;2023-02-15T00:03:36;36.23;33.01;38.64;;
67324;Laerm;57667;51.438;5.968;2023-02-15T00:03:49;35.24;32.63;38.48;;
67324;Laerm;57667;51.438;5.968;2023-02-15T00:04:00;34.28;32.02;37.41;;
67324;Laerm;57667;51.438;5.968;2023-02-15T00:04:12;48.14;35.74;57.79;;
67324;Laerm;57667;51.438;5.968;2023-02-15T00:04:23;53.48;45.87;60.62;;
67324;Laerm;57667;51.438;5.968;2023-02-15T00:04:34;48.24;43.33;53.40;;
67324;Laerm;57667;51.438;5.968;2023-02-15T00:04:56;40.55;33.20;46.72;;
67324;Laerm;57667;51.438;5.968;2023-02-15T00:05:07;34.71;33.18;36.33;;
67324;Laerm;57667;51.438;5.968;2023-02-15T00:05:17;37.12;33.92;42.11;;
67324;Laerm;57667;51.438;5.968;2023-02-15T00:05:29;36.37;33.55;40.59;;
67324;Laerm;57667;51.438;5.968;2023-02-15T00:05:40;34.72;32.80;36.52;;
67324;Laerm;57667;51.438;5.968;2023-02-15T00:05:50;34.65;32.45;36.57;;
67324;Laerm;57667;51.438;5.968;2023-02-15T00:06:00;33.80;32.03;35.88;;
67324;Laerm;57667;51.438;5.968;2023-02-15T00:06:11;33.63;32.03;36.25;;
67324;Laerm;57667;51.438;5.968;2023-02-15T00:06:21;40.82;33.99;48.09;;
67324;Laerm;57667;51.438;5.968;2023-02-15T00:06:32;75.17;46.83;82.12;;
67324;Laerm;57667;51.438;5.968;2023-02-15T00:06:42;78.39;67.66;84.39;;
67324;Laerm;57667;51.438;5.968;2023-02-15T00:06:52;63.32;55.46;69.03;;
67324;Laerm;57667;51.438;5.968;2023-02-15T00:07:03;52.82;44.91;57.54;;
67324;Laerm;57667;51.438;5.968;2023-02-15T00:07:14;45.07;40.93;47.52;;
67324;Laerm;57667;51.438;5.968;2023-02-15T00:07:25;44.64;41.20;47.24;;
67324;Laerm;57667;51.438;5.968;2023-02-15T00:07:35;45.23;40.82;49.59;;
67324;Laerm;57667;51.438;5.968;2023-02-15T00:07:45;42.89;39.26;47.03;;
67324;Laerm;57667;51.438;5.968;2023-02-15T00:07:56;38.43;35.32;41.49;;
67324;Laerm;57667;51.438;5.968;2023-02-15T00:08:06;36.96;34.09;39.50;;
67324;Laerm;57667;51.438;5.968;2023-02-15T00:08:16;37.09;35.01;39.15;;
67324;Laerm;57667;51.438;5.968;2023-02-15T00:08:26;35.97;33.64;39.01;;
67324;Laerm;57667;51.438;5.968;2023-02-15T00:08:37;34.42;32.51;36.34;;
67324;Laerm;57667;51.438;5.968;2023-02-15T00:08:48;34.57;32.11;37.06;;
67324;Laerm;57667;51.438;5.968;2023-02-15T00:08:58;34.23;31.75;36.80;;
67324;Laerm;57667;51.438;5.968;2023-02-15T00:09:09;34.54;32.75;37.65;;
67324;Laerm;57667;51.438;5.968;2023-02-15T00:09:20;33.61;31.41;36.19;;
67324;Laerm;57667;51.438;5.968;2023-02-15T00:09:30;33.61;31.58;35.33;;
67324;Laerm;57667;51.438;5.968;2023-02-15T00:09:40;33.91;32.20;35.97;;
67324;Laerm;57667;51.438;5.968;2023-02-15T00:09:51;33.94;32.26;35.94;;
67324;Laerm;57667;51.438;5.968;2023-02-15T00:10:01;33.42;31.56;35.46;;
67324;Laerm;57667;51.438;5.968;2023-02-15T00:10:12;33.69;31.66;36.29;;
67324;Laerm;57667;51.438;5.968;2023-02-15T00:10:22;34.29;32.09;36.69;;
67324;Laerm;57667;51.438;5.968;2023-02-15T00:10:33;33.66;31.53;35.68;;
67324;Laerm;57667;51.438;5.968;2023-02-15T00:10:43;33.15;31.30;39.01;;
67324;Laerm;57667;51.438;5.968;2023-02-15T00:11:02;33.26;31.46;35.08;;
67324;Laerm;57667;51.438;5.968;2023-02-15T00:11:14;33.67;31.46;36.61;;
67324;Laerm;57667;51.438;5.968;2023-02-15T00:11:24;34.35;31.96;36.49;;
67324;Laerm;57667;51.438;5.968;2023-02-15T00:11:50;33.17;30.80;47.83;;
67324;Laerm;57667;51.438;5.968;2023-02-15T00:12:00;34.83;31.33;37.12;;
67324;Laerm;57667;51.438;5.968;2023-02-15T00:12:10;33.96;32.10;35.89;;
67324;Laerm;57667;51.438;5.968;2023-02-15T00:12:21;33.46;31.76;34.99;;
67324;Laerm;57667;51.438;5.968;2023-02-15T00:12:31;33.78;31.97;35.80;;
67324;Laerm;57667;51.438;5.968;2023-02-15T00:12:42;33.43;31.81;40.45;;
67324;Laerm;57667;51.438;5.968;2023-02-15T00:12:52;33.18;31.56;35.23;;
67324;Laerm;57667;51.438;5.968;2023-02-15T00:13:03;33.71;31.39;35.39;;
67324;Laerm;57667;51.438;5.968;2023-02-15T00:13:13;33.47;31.30;35.38;;
67324;Laerm;57667;51.438;5.968;2023-02-15T00:13:23;33.36;31.58;35.18;;
67324;Laerm;57667;51.438;5.968;2023-02-15T00:13:34;34.79;32.78;36.53;;
67324;Laerm;57667;51.438;5.968;2023-02-15T00:13:46;34.61;32.41;36.76;;
67324;Laerm;57667;51.438;5.968;2023-02-15T00:13:56;33.73;32.19;35.61;;
67324;Laerm;57667;51.438;5.968;2023-02-15T00:14:09;33.73;31.73;35.54;;
67324;Laerm;57667;51.438;5.968;2023-02-15T00:14:21;35.17;32.90;37.68;;
67324;Laerm;57667;51.438;5.968;2023-02-15T00:14:31;68.42;35.25;76.14;;
67324;Laerm;57667;51.438;5.968;2023-02-15T00:14:42;70.41;68.03;73.05;;
67324;Laerm;57667;51.438;5.968;2023-02-15T00:14:52;71.44;63.50;75.51;;
67324;Laerm;57667;51.438;5.968;2023-02-15T00:15:03;57.90;49.93;64.72;;
67324;Laerm;57667;51.438;5.968;2023-02-15T00:15:13;49.41;45.22;55.95;;
67324;Laerm;57667;51.438;5.968;2023-02-15T00:15:23;50.79;45.74;56.30;;
67324;Laerm;57667;51.438;5.968;2023-02-15T00:15:35;73.38;52.62;80.25;;
67324;Laerm;57667;51.438;5.968;2023-02-15T00:15:46;75.67;71.58;79.35;;
67324;Laerm;57667;51.438;5.968;2023-02-15T00:16:03;73.98;70.85;76.40;;
67324;Laerm;57667;51.438;5.968;2023-02-15T00:16:14;62.06;35.48;74.80;;
67324;Laerm;57667;51.438;5.968;2023-02-15T00:16:24;35.75;33.37;38.03;;
67324;Laerm;57667;51.438;5.968;2023-02-15T00:16:35;34.29;32.32;35.89;;
67324;Laerm;57667;51.438;5.968;2023-02-15T00:16:45;35.75;33.27;37.94;;
67324;Laerm;57667;51.438;5.968;2023-02-15T00:16:56;37.31;35.15;39.54;;
67324;Laerm;57667;51.438;5.968;2023-02-15T00:17:09;36.92;34.60;39.26;;
67324;Laerm;57667;51.438;5.968;2023-02-15T00:17:20;35.54;33.21;38.81;;
67324;Laerm;57667;51.438;5.968;2023-02-15T00:17:30;34.06;32.38;36.55;;
67324;Laerm;57667;51.438;5.968;2023-02-15T00:17:41;34.41;32.35;35.80;;
67324;Laerm;57667;51.438;5.968;2023-02-15T00:17:51;33.13;31.46;35.04;;
67324;Laerm;57667;51.438;5.968;2023-02-15T00:18:02;33.41;30.91;35.12;;
67324;Laerm;57667;51.438;5.968;2023-02-15T00:18:12;32.65;30.90;34.43;;
67324;Laerm;57667;51.438;5.968;2023-02-15T00:18:22;33.12;31.62;34.59;;
67324;Laerm;57667;51.438;5.968;2023-02-15T00:18:33;33.72;31.90;36.18;;
67324;Laerm;57667;51.438;5.968;2023-02-15T00:18:43;33.72;31.69;35.50;;
67324;Laerm;57667;51.438;5.968;2023-02-15T00:18:53;34.11;32.20;35.73;;
67324;Laerm;57667;51.438;5.968;2023-02-15T00:19:04;33.53;31.82;35.70;;
67324;Laerm;57667;51.438;5.968;2023-02-15T00:19:15;32.79;31.24;34.87;;
67324;Laerm;57667;51.438;5.968;2023-02-15T00:19:25;32.98;31.19;35.13;;
67324;Laerm;57667;51.438;5.968;2023-02-15T00:19:36;33.56;31.75;35.34;;
67324;Laerm;57667;51.438;5.968;2023-02-15T00:19:46;34.34;32.12;38.47;;
67324;Laerm;57667;51.438;5.968;2023-02-15T00:19:56;33.53;31.89;35.33;;
67324;Laerm;57667;51.438;5.968;2023-02-15T00:20:07;33.57;31.55;35.77;;
67324;Laerm;57667;51.438;5.968;2023-02-15T00:20:17;32.91;31.34;35.82;;
67324;Laerm;57667;51.438;5.968;2023-02-15T00:20:28;32.61;30.84;34.35;;
67324;Laerm;57667;51.438;5.968;2023-02-15T00:20:39;33.07;31.04;34.98;;
67324;Laerm;57667;51.438;5.968;2023-02-15T00:20:49;40.63;31.12;52.77;;
67324;Laerm;57667;51.438;5.968;2023-02-15T00:21:03;38.86;30.66;54.82;;
67324;Laerm;57667;51.438;5.968;2023-02-15T00:21:13;34.77;31.23;49.03;;
67324;Laerm;57667;51.438;5.968;2023-02-15T00:21:24;33.73;31.64;35.83;;
67324;Laerm;57667;51.438;5.968;2023-02-15T00:21:34;32.94;31.24;34.74;;
67324;Laerm;57667;51.438;5.968;2023-02-15T00:21:45;33.91;32.11;38.43;;
67324;Laerm;57667;51.438;5.968;2023-02-15T00:21:55;33.96;31.77;36.49;;
67324;Laerm;57667;51.438;5.968;2023-02-15T00:22:06;33.63;31.72;38.22;;
67324;Laerm;57667;51.438;5.968;2023-02-15T00:22:16;34.68;31.21;45.03;;
67324;Laerm;57667;51.438;5.968;2023-02-15T00:22:26;34.66;31.47;44.69;;
67324;Laerm;57667;51.438;5.968;2023-02-15T00:22:36;32.38;30.84;34.48;;
67324;Laerm;57667;51.438;5.968;2023-02-15T00:22:47;33.66;31.16;36.47;;
67324;Laerm;57667;51.438;5.968;2023-02-15T00:22:58;34.18;32.24;36.09;;
67324;Laerm;57667;51.438;5.968;2023-02-15T00:23:08;32.95;30.66;34.98;;
67324;Laerm;57667;51.438;5.968;2023-02-15T00:23:19;33.08;31.59;34.79;;
67324;Laerm;57667;51.438;5.968;2023-02-15T00:23:29;33.42;31.53;35.34;;
67324;Laerm;57667;51.438;5.968;2023-02-15T00:23:39;33.93;31.74;35.82;;
67324;Laerm;57667;51.438;5.968;2023-02-15T00:23:50;33.53;31.80;35.40;;
67324;Laerm;57667;51.438;5.968;2023-02-15T00:24:00;33.86;31.78;35.89;;
67324;Laerm;57667;51.438;5.968;2023-02-15T00:24:12;33.18;31.30;34.93;;
67324;Laerm;57667;51.438;5.968;2023-02-15T00:24:23;33.30;31.15;40.25;;
67324;Laerm;57667;51.438;5.968;2023-02-15T00:24:33;33.43;31.64;37.96;;
67324;Laerm;57667;51.438;5.968;2023-02-15T00:24:43;32.98;30.94;35.00;;
67324;Laerm;57667;51.438;5.968;2023-02-15T00:24:54;32.20;30.33;34.19;;
67324;Laerm;57667;51.438;5.968;2023-02-15T00:25:04;33.09;31.18;34.99;;
67324;Laerm;57667;51.438;5.968;2023-02-15T00:25:14;33.72;32.15;36.14;;
67324;Laerm;57667;51.438;5.968;2023-02-15T00:25:25;33.28;31.64;35.48;;
67324;Laerm;57667;51.438;5.968;2023-02-15T00:25:35;33.43;31.04;36.76;;
67324;Laerm;57667;51.438;5.968;2023-02-15T00:25:45;33.61;31.93;36.69;;
67324;Laerm;57667;51.438;5.968;2023-02-15T00:26:15;33.77;31.38;38.89;;
67324;Laerm;57667;51.438;5.968;2023-02-15T00:26:25;34.37;31.75;37.46;;
67324;Laerm;57667;51.438;5.968;2023-02-15T00:26:37;33.90;31.58;36.59;;
67324;Laerm;57667;51.438;5.968;2023-02-15T00:26:48;33.35;31.09;37.64;;
67324;Laerm;57667;51.438;5.968;2023-02-15T00:26:59;34.28;31.48;44.95;;
67324;Laerm;57667;51.438;5.968;2023-02-15T00:27:09;34.25;31.94;37.22;;
67324;Laerm;57667;51.438;5.968;2023-02-15T00:27:19;34.30;32.00;36.93;;
67324;Laerm;57667;51.438;5.968;2023-02-15T00:27:30;33.41;31.20;36.12;;
67324;Laerm;57667;51.438;5.968;2023-02-15T00:27:40;33.54;31.16;45.60;;
67324;Laerm;57667;51.438;5.968;2023-02-15T00:27:50;33.93;32.05;37.00;;
67324;Laerm;57667;51.438;5.968;2023-02-15T00:28:01;33.68;31.56;37.45;;
67324;Laerm;57667;51.438;5.968;2023-02-15T00:28:11;33.85;31.48;36.03;;
67324;Laerm;57667;51.438;5.968;2023-02-15T00:28:21;33.17;31.30;36.48;;
67324;Laerm;57667;51.438;5.968;2023-02-15T00:28:32;32.70;30.91;43.19;;
67324;Laerm;57667;51.438;5.968;2023-02-15T00:28:42;41.72;30.89;53.02;;
67324;Laerm;57667;51.438;5.968;2023-02-15T00:28:52;41.35;31.74;54.64;;
67324;Laerm;57667;51.438;5.968;2023-02-15T00:29:03;42.74;31.30;55.50;;
67324;Laerm;57667;51.438;5.968;2023-02-15T00:29:14;45.91;32.72;62.33;;
67324;Laerm;57667;51.438;5.968;2023-02-15T00:29:25;41.51;31.97;54.73;;
67324;Laerm;57667;51.438;5.968;2023-02-15T00:29:35;39.69;31.13;54.22;;
67324;Laerm;57667;51.438;5.968;2023-02-15T00:29:46;38.93;31.30;53.35;;
67324;Laerm;57667;51.438;5.968;2023-02-15T00:29:56;41.71;30.37;55.77;;
67324;Laerm;57667;51.438;5.968;2023-02-15T00:30:07;39.02;31.18;53.52;;
67324;Laerm;57667;51.438;5.968;2023-02-15T00:30:18;33.80;31.41;36.96;;
67324;Laerm;57667;51.438;5.968;2023-02-15T00:30:28;33.11;31.47;35.29;;
67324;Laerm;57667;51.438;5.968;2023-02-15T00:30:38;33.08;31.05;35.05;;
67324;Laerm;57667;51.438;5.968;2023-02-15T00:30:48;33.70;31.64;35.54;;
67324;Laerm;57667;51.438;5.968;2023-02-15T00:31:02;33.50;31.49;36.07;;
67324;Laerm;57667;51.438;5.968;2023-02-15T00:31:12;34.85;32.03;42.44;;
67324;Laerm;57667;51.438;5.968;2023-02-15T00:31:23;34.37;32.53;36.87;;
67324;Laerm;57667;51.438;5.968;2023-02-15T00:31:33;35.36;32.74;37.55;;
67324;Laerm;57667;51.438;5.968;2023-02-15T00:31:44;38.71;33.27;51.06;;
67324;Laerm;57667;51.438;5.968;2023-02-15T00:31:55;35.00;32.49;37.74;;
67324;Laerm;57667;51.438;5.968;2023-02-15T00:32:05;35.84;32.67;40.46;;
67324;Laerm;57667;51.438;5.968;2023-02-15T00:32:16;39.16;34.45;43.29;;
67324;Laerm;57667;51.438;5.968;2023-02-15T00:32:26;42.05;38.26;45.40;;
67324;Laerm;57667;51.438;5.968;2023-02-15T00:32:37;37.70;32.96;42.86;;
67324;Laerm;57667;51.438;5.968;2023-02-15T00:32:47;37.54;34.01;41.12;;
67324;Laerm;57667;51.438;5.968;2023-02-15T00:32:58;35.88;33.05;38.95;;
67324;Laerm;57667;51.438;5.968;2023-02-15T00:33:08;35.35;33.13;37.54;;
67324;Laerm;57667;51.438;5.968;2023-02-15T00:33:18;34.72;32.84;36.88;;
67324;Laerm;57667;51.438;5.968;2023-02-15T00:33:29;34.72;32.37;37.24;;
67324;Laerm;57667;51.438;5.968;2023-02-15T00:33:39;34.94;32.18;37.94;;
67324;Laerm;57667;51.438;5.968;2023-02-15T00:33:49;33.70;31.97;35.03;;
67324;Laerm;57667;51.438;5.968;2023-02-15T00:34:14;34.66;32.56;37.31;;
67324;Laerm;57667;51.438;5.968;2023-02-15T00:34:26;34.10;32.10;36.07;;
67324;Laerm;57667;51.438;5.968;2023-02-15T00:34:36;34.80;32.63;38.30;;
67324;Laerm;57667;51.438;5.968;2023-02-15T00:34:46;35.35;33.03;42.87;;
67324;Laerm;57667;51.438;5.968;2023-02-15T00:34:57;35.10;32.82;42.05;;
67324;Laerm;57667;51.438;5.968;2023-02-15T00:35:07;34.67;31.72;40.91;;
67324;Laerm;57667;51.438;5.968;2023-02-15T00:35:19;33.79;31.63;40.92;;
67324;Laerm;57667;51.438;5.968;2023-02-15T00:35:29;44.95;32.57;56.75;;
67324;Laerm;57667;51.438;5.968;2023-02-15T00:35:39;72.46;55.72;79.05;;
67324;Laerm;57667;51.438;5.968;2023-02-15T00:35:55;69.61;66.88;72.64;;
67324;Laerm;57667;51.438;5.968;2023-02-15T00:36:06;65.27;48.56;73.93;;
67324;Laerm;57667;51.438;5.968;2023-02-15T00:36:17;47.73;40.98;57.08;;
67324;Laerm;57667;51.438;5.968;2023-02-15T00:36:27;40.97;37.93;43.84;;
67324;Laerm;57667;51.438;5.968;2023-02-15T00:36:37;38.92;35.37;42.11;;
67324;Laerm;57667;51.438;5.968;2023-02-15T00:36:48;38.05;35.66;40.64;;
67324;Laerm;57667;51.438;5.968;2023-02-15T00:36:59;37.41;34.60;41.53;;
67324;Laerm;57667;51.438;5.968;2023-02-15T00:37:09;35.86;33.95;38.17;;
67324;Laerm;57667;51.438;5.968;2023-02-15T00:37:19;35.08;32.20;37.97;;
67324;Laerm;57667;51.438;5.968;2023-02-15T00:37:30;33.72;32.16;35.65;;
67324;Laerm;57667;51.438;5.968;2023-02-15T00:37:40;33.67;31.69;35.47;;
67324;Laerm;57667;51.438;5.968;2023-02-15T00:37:50;33.32;31.44;35.26;;
67324;Laerm;57667;51.438;5.968;2023-02-15T00:38:02;34.14;31.83;35.97;;
67324;Laerm;57667;51.438;5.968;2023-02-15T00:38:12;33.40;31.57;41.07;;
67324;Laerm;57667;51.438;5.968;2023-02-15T00:38:23;34.11;31.62;36.81;;
67324;Laerm;57667;51.438;5.968;2023-02-15T00:38:33;34.31;31.72;36.84;;
67324;Laerm;57667;51.438;5.968;2023-02-15T00:38:44;34.65;32.47;37.92;;
67324;Laerm;57667;51.438;5.968;2023-02-15T00:38:54;34.56;32.32;37.02;;
67324;Laerm;57667;51.438;5.968;2023-02-15T00:39:05;35.04;32.54;37.92;;
67324;Laerm;57667;51.438;5.968;2023-02-15T00:39:16;35.57;33.05;39.07;;
67324;Laerm;57667;51.438;5.968;2023-02-15T00:39:26;34.08;32.21;36.76;;
67324;Laerm;57667;51.438;5.968;2023-02-15T00:39:38;35.89;32.06;42.16;;
67324;Laerm;57667;51.438;5.968;2023-02-15T00:39:49;37.76;34.40;42.28;;
67324;Laerm;57667;51.438;5.968;2023-02-15T00:39:59;34.81;32.29;37.52;;
67324;Laerm;57667;51.438;5.968;2023-02-15T00:40:09;36.34;33.00;39.09;;
67324;Laerm;57667;51.438;5.968;2023-02-15T00:40:20;36.13;33.08;38.98;;
67324;Laerm;57667;51.438;5.968;2023-02-15T00:40:30;34.98;32.60;38.47;;
67324;Laerm;57667;51.438;5.968;2023-02-15T00:40:40;34.56;31.79;41.74;;
67324;Laerm;57667;51.438;5.968;2023-02-15T00:40:54;35.47;32.38;39.60;;
67324;Laerm;57667;51.438;5.968;2023-02-15T00:41:05;34.27;32.23;39.00;;
67324;Laerm;57667;51.438;5.968;2023-02-15T00:41:16;33.93;31.95;40.90;;
67324;Laerm;57667;51.438;5.968;2023-02-15T00:41:26;34.10;31.83;40.06;;
67324;Laerm;57667;51.438;5.968;2023-02-15T00:41:37;33.74;31.43;38.67;;
67324;Laerm;57667;51.438;5.968;2023-02-15T00:41:47;33.48;31.67;35.26;;
67324;Laerm;57667;51.438;5.968;2023-02-15T00:41:57;32.94;30.53;35.45;;
67324;Laerm;57667;51.438;5.968;2023-02-15T00:42:08;33.79;31.99;36.21;;
67324;Laerm;57667;51.438;5.968;2023-02-15T00:42:18;34.27;31.84;36.25;;
67324;Laerm;57667;51.438;5.968;2023-02-15T00:42:28;34.72;32.49;36.96;;
67324;Laerm;57667;51.438;5.968;2023-02-15T00:42:38;34.11;32.20;36.37;;
67324;Laerm;57667;51.438;5.968;2023-02-15T00:42:49;34.19;32.15;36.91;;
67324;Laerm;57667;51.438;5.968;2023-02-15T00:42:59;33.48;31.64;35.63;;
67324;Laerm;57667;51.438;5.968;2023-02-15T00:43:10;33.37;31.77;35.50;;
67324;Laerm;57667;51.438;5.968;2023-02-15T00:43:21;33.39;32.06;35.61;;
67324;Laerm;57667;51.438;5.968;2023-02-15T00:43:32;33.32;31.84;34.86;;
67324;Laerm;57667;51.438;5.968;2023-02-15T00:43:43;34.11;32.12;36.46;;
67324;Laerm;57667;51.438;5.968;2023-02-15T00:43:53;35.60;33.91;37.38;;
67324;Laerm;57667;51.438;5.968;2023-02-15T00:44:03;42.07;33.32;52.98;;
67324;Laerm;57667;51.438;5.968;2023-02-15T00:44:14;41.25;32.75;56.29;;
67324;Laerm;57667;51.438;5.968;2023-02-15T00:44:25;38.00;32.48;51.87;;
67324;Laerm;57667;51.438;5.968;2023-02-15T00:44:35;39.50;32.61;51.45;;
67324;Laerm;57667;51.438;5.968;2023-02-15T00:44:45;66.64;36.22;76.89;;
67324;Laerm;57667;51.438;5.968;2023-02-15T00:44:55;75.49;71.78;79.04;;
67324;Laerm;57667;51.438;5.968;2023-02-15T00:45:06;75.04;70.00;78.65;;
67324;Laerm;57667;51.438;5.968;2023-02-15T00:45:16;61.45;53.76;70.94;;
67324;Laerm;57667;51.438;5.968;2023-02-15T00:45:27;51.15;45.05;56.37;;
67324;Laerm;57667;51.438;5.968;2023-02-15T00:45:37;43.73;40.14;48.74;;
67324;Laerm;57667;51.438;5.968;2023-02-15T00:45:47;40.94;38.31;43.93;;
67324;Laerm;57667;51.438;5.968;2023-02-15T00:45:58;41.28;37.10;50.66;;
67324;Laerm;57667;51.438;5.968;2023-02-15T00:46:08;39.86;33.72;52.28;;
67324;Laerm;57667;51.438;5.968;2023-02-15T00:46:18;36.51;34.01;39.36;;
67324;Laerm;57667;51.438;5.968;2023-02-15T00:46:29;40.94;35.83;48.35;;
67324;Laerm;57667;51.438;5.968;2023-02-15T00:46:40;43.60;38.09;51.94;;
67324;Laerm;57667;51.438;5.968;2023-02-15T00:46:50;40.11;34.73;46.80;;
67324;Laerm;57667;51.438;5.968;2023-02-15T00:47:00;34.99;32.41;37.93;;
67324;Laerm;57667;51.438;5.968;2023-02-15T00:47:11;34.03;32.21;35.58;;
67324;Laerm;57667;51.438;5.968;2023-02-15T00:47:21;33.95;32.25;36.14;;
67324;Laerm;57667;51.438;5.968;2023-02-15T00:47:31;33.29;31.01;38.86;;
67324;Laerm;57667;51.438;5.968;2023-02-15T00:47:42;32.98;31.02;34.64;;
67324;Laerm;57667;51.438;5.968;2023-02-15T00:47:52;32.75;30.38;35.14;;
67324;Laerm;57667;51.438;5.968;2023-02-15T00:48:02;33.09;31.69;34.93;;
67324;Laerm;57667;51.438;5.968;2023-02-15T00:48:13;33.19;31.42;35.09;;
67324;Laerm;57667;51.438;5.968;2023-02-15T00:48:23;33.30;31.56;35.10;;
67324;Laerm;57667;51.438;5.968;2023-02-15T00:48:34;33.47;31.45;37.11;;
67324;Laerm;57667;51.438;5.968;2023-02-15T00:48:44;33.18;31.49;35.04;;
67324;Laerm;57667;51.438;5.968;2023-02-15T00:48:54;34.08;32.04;36.19;;
67324;Laerm;57667;51.438;5.968;2023-02-15T00:49:05;33.92;31.56;36.03;;
67324;Laerm;57667;51.438;5.968;2023-02-15T00:49:15;33.49;31.92;35.07;;
67324;Laerm;57667;51.438;5.968;2023-02-15T00:49:26;32.89;31.36;35.09;;
67324;Laerm;57667;51.438;5.968;2023-02-15T00:49:36;33.55;31.45;41.91;;
67324;Laerm;57667;51.438;5.968;2023-02-15T00:49:46;33.71;31.06;43.45;;
67324;Laerm;57667;51.438;5.968;2023-02-15T00:49:56;33.09;31.39;37.83;;
67324;Laerm;57667;51.438;5.968;2023-02-15T00:50:07;33.01;31.02;39.27;;
67324;Laerm;57667;51.438;5.968;2023-02-15T00:50:17;34.31;31.80;40.58;;
67324;Laerm;57667;51.438;5.968;2023-02-15T00:50:27;35.24;32.71;40.75;;
67324;Laerm;57667;51.438;5.968;2023-02-15T00:50:38;34.92;31.97;41.54;;
67324;Laerm;57667;51.438;5.968;2023-02-15T00:50:49;35.01;31.87;38.86;;
67324;Laerm;57667;51.438;5.968;2023-02-15T00:51:00;37.73;33.91;41.55;;
67324;Laerm;57667;51.438;5.968;2023-02-15T00:51:10;39.81;35.77;42.68;;
67324;Laerm;57667;51.438;5.968;2023-02-15T00:51:21;39.96;35.63;44.42;;
67324;Laerm;57667;51.438;5.968;2023-02-15T00:51:31;38.92;33.41;46.01;;
67324;Laerm;57667;51.438;5.968;2023-02-15T00:51:42;34.85;32.21;37.28;;
67324;Laerm;57667;51.438;5.968;2023-02-15T00:51:52;34.15;32.04;37.58;;
67324;Laerm;57667;51.438;5.968;2023-02-15T00:52:02;33.24;31.60;34.99;;
67324;Laerm;57667;51.438;5.968;2023-02-15T00:52:13;33.54;31.73;35.19;;
67324;Laerm;57667;51.438;5.968;2023-02-15T00:52:23;33.89;32.23;36.45;;
67324;Laerm;57667;51.438;5.968;2023-02-15T00:52:33;34.18;32.40;36.13;;
67324;Laerm;57667;51.438;5.968;2023-02-15T00:52:44;33.71;31.96;35.35;;
67324;Laerm;57667;51.438;5.968;2023-02-15T00:52:54;33.86;32.38;35.80;;
67324;Laerm;57667;51.438;5.968;2023-02-15T00:53:04;33.50;31.69;35.12;;
67324;Laerm;57667;51.438;5.968;2023-02-15T00:53:15;33.22;31.44;34.85;;
67324;Laerm;57667;51.438;5.968;2023-02-15T00:53:26;33.82;31.64;35.61;;
67324;Laerm;57667;51.438;5.968;2023-02-15T00:53:36;33.26;30.73;36.01;;
67324;Laerm;57667;51.438;5.968;2023-02-15T00:53:47;33.97;31.73;35.67;;
67324;Laerm;57667;51.438;5.968;2023-02-15T00:53:57;33.50;31.97;39.24;;
67324;Laerm;57667;51.438;5.968;2023-02-15T00:54:08;33.23;31.44;34.94;;
67324;Laerm;57667;51.438;5.968;2023-02-15T00:54:18;34.11;32.08;46.80;;
67324;Laerm;57667;51.438;5.968;2023-02-15T00:54:28;33.75;31.99;35.43;;
67324;Laerm;57667;51.438;5.968;2023-02-15T00:54:39;33.99;32.17;36.03;;
67324;Laerm;57667;51.438;5.968;2023-02-15T00:54:49;33.99;31.99;35.87;;
67324;Laerm;57667;51.438;5.968;2023-02-15T00:54:59;33.90;31.64;36.26;;
67324;Laerm;57667;51.438;5.968;2023-02-15T00:55:09;33.51;31.48;35.57;;
67324;Laerm;57667;51.438;5.968;2023-02-15T00:55:20;33.37;31.62;35.00;;
67324;Laerm;57667;51.438;5.968;2023-02-15T00:55:30;33.78;32.04;36.28;;
67324;Laerm;57667;51.438;5.968;2023-02-15T00:55:40;33.53;31.37;36.20;;
67324;Laerm;57667;51.438;5.968;2023-02-15T00:55:51;33.61;31.54;39.15;;
67324;Laerm;57667;51.438;5.968;2023-02-15T00:56:01;33.81;32.09;38.27;;
67324;Laerm;57667;51.438;5.968;2023-02-15T00:56:12;33.69;31.84;35.29;;
67324;Laerm;57667;51.438;5.968;2023-02-15T00:56:22;33.55;31.88;35.59;;
67324;Laerm;57667;51.438;5.968;2023-02-15T00:56:32;33.70;32.28;35.38;;
67324;Laerm;57667;51.438;5.968;2023-02-15T00:56:43;33.80;31.50;35.58;;
67324;Laerm;57667;51.438;5.968;2023-02-15T00:56:53;33.56;31.84;35.75;;
67324;Laerm;57667;51.438;5.968;2023-02-15T00:57:03;34.19;31.94;36.48;;
67324;Laerm;57667;51.438;5.968;2023-02-15T00:57:14;34.07;31.76;36.20;;
67324;Laerm;57667;51.438;5.968;2023-02-15T00:57:24;33.75;31.77;35.71;;
67324;Laerm;57667;51.438;5.968;2023-02-15T00:57:34;33.97;32.30;36.06;;
67324;Laerm;57667;51.438;5.968;2023-02-15T00:57:45;34.15;32.03;35.86;;
67324;Laerm;57667;51.438;5.968;2023-02-15T00:57:55;34.13;32.22;36.28;;
67324;Laerm;57667;51.438;5.968;2023-02-15T00:58:06;34.25;32.36;37.04;;
67324;Laerm;57667;51.438;5.968;2023-02-15T00:58:16;33.99;31.23;39.07;;
67324;Laerm;57667;51.438;5.968;2023-02-15T00:58:27;33.82;31.89;35.77;;
67324;Laerm;57667;51.438;5.968;2023-02-15T00:58:37;34.05;32.30;37.53;;
67324;Laerm;57667;51.438;5.968;2023-02-15T00:58:47;34.49;31.92;40.28;;
67324;Laerm;57667;51.438;5.968;2023-02-15T00:58:58;34.22;32.19;36.75;;
67324;Laerm;57667;51.438;5.968;2023-02-15T00:59:08;34.44;32.59;35.98;;
67324;Laerm;57667;51.438;5.968;2023-02-15T00:59:18;38.19;33.40;44.65;;
67324;Laerm;57667;51.438;5.968;2023-02-15T00:59:29;40.96;36.53;44.13;;
67324;Laerm;57667;51.438;5.968;2023-02-15T00:59:39;43.87;39.85;47.80;;
67324;Laerm;57667;51.438;5.968;2023-02-15T00:59:49;42.14;37.44;46.96;;
67324;Laerm;57667;51.438;5.968;2023-02-15T01:00:00;37.07;33.70;41.29;;
67324;Laerm;57667;51.438;5.968;2023-02-15T01:00:10;36.23;33.85;40.12;;
67324;Laerm;57667;51.438;5.968;2023-02-15T01:00:21;39.93;35.64;45.70;;
67324;Laerm;57667;51.438;5.968;2023-02-15T01:00:31;74.07;43.72;79.99;;